Time;durP1;ratioP1;P1;durP2;ratioP2;P2;SDS_P1;SDS_P2;PMS_P1;PMS_P2;Temp;Humidity;BMP_temperature;BMP_pressure;BME280_temperature;BME280_humidity;BME280_pressure;Samples;Min_cycle;Max_cycle;Signal;HPM_P1;HPM_P2
2022/09/13 00:00:49;;;;;;;0.75;0.60;;;;;;;18.95;68.50;99824.38;5021548;28;20026;-74
2022/09/13 00:03:15;;;;;;;1.65;0.80;;;;;;;18.93;68.43;99815.59;4997910;28;20034;-74
2022/09/13 00:05:40;;;;;;;0.63;0.52;;;;;;;18.95;68.12;99818.00;5000004;28;20087;-73
2022/09/13 00:08:07;;;;;;;1.63;0.70;;;;;;;18.96;68.10;99814.91;4994840;28;20169;-74
2022/09/13 00:10:35;;;;;;;1.17;0.85;;;;;;;18.96;67.75;99809.38;4996632;28;20034;-73
2022/09/13 00:13:00;;;;;;;1.45;0.80;;;;;;;18.94;67.50;99803.38;5015413;28;20025;-75
2022/09/13 00:15:27;;;;;;;0.60;0.60;;;;;;;18.98;67.12;99807.09;4998679;28;20049;-75
2022/09/13 00:17:52;;;;;;;1.10;0.70;;;;;;;19.01;67.12;99805.56;4995836;28;20117;-73
2022/09/13 00:20:18;;;;;;;0.70;0.57;;;;;;;19.03;67.13;99803.28;5020326;28;20117;-75
2022/09/13 00:22:43;;;;;;;1.30;1.05;;;;;;;19.08;66.83;99799.50;4998203;28;20056;-75
2022/09/13 00:25:09;;;;;;;1.73;1.15;;;;;;;19.09;66.51;99796.41;5017083;28;20452;-75
2022/09/13 00:27:35;;;;;;;1.83;1.20;;;;;;;19.12;66.50;99798.47;5013085;28;20495;-74
2022/09/13 00:30:04;;;;;;;1.25;1.00;;;;;;;19.12;66.24;99794.91;5020430;28;20053;-75
2022/09/13 00:32:29;;;;;;;1.75;1.02;;;;;;;19.09;66.20;99790.06;5013645;28;20048;-73
2022/09/13 00:34:55;;;;;;;2.25;1.45;;;;;;;19.06;66.35;99787.97;5020654;28;20053;-74
2022/09/13 00:37:21;;;;;;;2.50;1.23;;;;;;;19.06;66.52;99790.72;5014698;28;20026;-74
2022/09/13 00:39:46;;;;;;;1.98;1.20;;;;;;;19.07;66.40;99793.16;5019603;28;20069;-74
2022/09/13 00:42:13;;;;;;;3.22;1.52;;;;;;;19.10;66.12;99781.41;5017396;28;20026;-75
2022/09/13 00:44:59;;;;;;;2.15;1.20;;;;;;;19.11;66.46;99788.53;4998371;28;20371;-75
2022/09/13 00:47:34;;;;;;;2.22;1.30;;;;;;;19.12;66.37;99789.38;5005146;28;20049;-74
2022/09/13 00:50:14;;;;;;;2.08;1.13;;;;;;;19.11;66.37;99787.75;5012795;28;20046;-75
2022/09/13 00:52:43;;;;;;;3.38;1.58;;;;;;;19.07;66.64;99775.72;5014135;28;20506;-75
2022/09/13 00:55:19;;;;;;;2.03;1.27;;;;;;;19.06;66.78;99785.19;5017915;28;20117;-74
2022/09/13 00:57:45;;;;;;;1.75;1.02;;;;;;;19.02;66.84;99780.31;5007498;28;20057;-71
2022/09/13 01:00:17;;;;;;;2.80;1.25;;;;;;;18.98;67.20;99779.38;4993217;28;20030;-72
2022/09/13 01:03:05;;;;;;;1.52;1.02;;;;;;;18.94;67.02;99781.19;5011492;28;20108;-72
2022/09/13 01:05:37;;;;;;;3.53;1.30;;;;;;;18.94;67.55;99783.97;4998955;28;20045;-74
2022/09/13 01:08:11;;;;;;;2.92;1.45;;;;;;;18.94;67.42;99777.59;5003040;28;20026;-72
2022/09/13 01:10:40;;;;;;;3.20;1.50;;;;;;;18.94;67.63;99772.06;4987966;28;20133;-72
2022/09/13 01:13:13;;;;;;;2.72;1.48;;;;;;;18.93;67.53;99765.72;4997657;28;20034;-73
2022/09/13 01:15:40;;;;;;;2.80;1.65;;;;;;;18.91;67.92;99773.56;4995600;28;20026;-72
2022/09/13 01:18:07;;;;;;;2.05;1.17;;;;;;;18.87;68.16;99772.63;5015344;28;20388;-72
2022/09/13 01:21:06;;;;;;;2.47;1.30;;;;;;;18.91;67.91;99783.81;4981121;28;20022;-72
2022/09/13 01:24:01;;;;;;;2.58;1.40;;;;;;;18.92;68.35;99780.72;5012569;28;20032;-73
2022/09/13 01:26:48;;;;;;;1.63;1.30;;;;;;;18.86;68.36;99771.00;5000654;28;20045;-72
2022/09/13 01:29:48;;;;;;;1.70;1.20;;;;;;;18.84;68.50;99773.28;5008334;28;20021;-73
2022/09/13 01:32:37;;;;;;;2.55;1.13;;;;;;;18.81;68.43;99776.72;5012920;28;20042;-73
2022/09/13 01:35:22;;;;;;;7.25;1.40;;;;;;;18.88;68.06;99768.72;5013521;28;20084;-74
2022/09/13 01:38:04;;;;;;;1.38;1.10;;;;;;;18.93;68.58;99759.38;4996850;28;20129;-73
2022/09/13 01:40:57;;;;;;;2.55;1.25;;;;;;;18.90;68.83;99763.63;5013082;28;20030;-72
2022/09/13 01:43:26;;;;;;;2.97;1.13;;;;;;;18.83;68.63;99757.78;5011788;28;20065;-73
2022/09/13 01:46:12;;;;;;;2.13;1.23;;;;;;;18.75;68.51;99753.13;5017690;28;20077;-72
2022/09/13 01:48:59;;;;;;;2.95;1.15;;;;;;;18.62;69.28;99766.91;5010935;28;20030;-72
2022/09/13 01:51:37;;;;;;;2.25;1.13;;;;;;;18.48;69.57;99763.56;4992417;28;20035;-73
2022/09/13 01:54:35;;;;;;;1.83;1.20;;;;;;;18.40;69.50;99769.97;5020354;28;20049;-74
2022/09/13 01:57:09;;;;;;;1.60;1.20;;;;;;;18.38;70.19;99769.50;4991587;28;20046;-73
2022/09/13 02:00:00;;;;;;;2.30;1.60;;;;;;;18.37;69.97;99770.63;5010826;28;20436;-74
2022/09/13 02:02:38;;;;;;;2.88;1.52;;;;;;;18.44;70.21;99768.16;5017042;28;20040;-75
2022/09/13 02:05:11;;;;;;;3.00;1.52;;;;;;;18.58;69.65;99774.25;5014111;28;20028;-74
2022/09/13 02:07:41;;;;;;;6.27;2.13;;;;;;;18.61;70.22;99770.81;5015762;28;20040;-73
2022/09/13 02:10:21;;;;;;;6.47;1.98;;;;;;;18.65;70.35;99773.72;5018625;28;20275;-74
2022/09/13 02:12:49;;;;;;;3.55;2.10;;;;;;;18.80;70.33;99766.78;5020639;28;20096;-74
2022/09/13 02:15:20;;;;;;;4.28;2.03;;;;;;;18.82;70.11;99776.38;5017939;28;20073;-76
2022/09/13 02:17:55;;;;;;;6.60;2.10;;;;;;;18.83;70.32;99777.19;5020234;28;20094;-73
2022/09/13 02:20:27;;;;;;;3.42;2.28;;;;;;;18.98;70.72;99768.31;5002311;28;20535;-74
2022/09/13 02:22:57;;;;;;;4.88;2.67;;;;;;;18.97;71.11;99776.94;5012836;28;20029;-75
2022/09/13 02:25:25;;;;;;;4.80;2.75;;;;;;;18.95;72.07;99780.06;5020023;28;20116;-76
2022/09/13 02:28:00;;;;;;;3.65;2.20;;;;;;;18.87;72.44;99780.94;5021127;28;20036;-75
2022/09/13 02:30:27;;;;;;;5.68;3.00;;;;;;;18.80;73.80;99773.13;4988937;28;20026;-74
2022/09/13 02:33:17;;;;;;;5.65;3.00;;;;;;;18.75;73.69;99778.03;4980113;28;20109;-74
2022/09/13 02:36:11;;;;;;;4.28;2.92;;;;;;;18.73;74.61;99791.44;4978086;28;20022;-77
2022/09/13 02:38:44;;;;;;;5.13;3.08;;;;;;;18.70;74.48;99794.88;4970000;28;20049;-73
2022/09/13 02:41:27;;;;;;;5.22;2.72;;;;;;;18.62;74.40;99805.66;4976131;28;20035;-74
2022/09/13 02:44:04;;;;;;;9.13;2.63;;;;;;;18.60;74.83;99807.97;4978745;28;20073;-74
2022/09/13 02:46:41;;;;;;;6.50;2.97;;;;;;;18.64;74.96;99817.19;4978507;28;20131;-74
2022/09/13 02:49:30;;;;;;;5.63;3.53;;;;;;;18.69;75.34;99805.16;4962095;28;20058;-73
2022/09/13 02:52:23;;;;;;;4.13;2.90;;;;;;;18.72;75.60;99810.00;4974416;28;20495;-74
2022/09/13 02:54:58;;;;;;;8.30;3.30;;;;;;;18.75;75.41;99809.34;4971724;28;20318;-73
2022/09/13 02:57:31;;;;;;;6.03;2.67;;;;;;;18.75;75.31;99814.03;4980302;28;20022;-74
2022/09/13 02:59:57;;;;;;;5.63;3.15;;;;;;;18.74;75.72;99823.53;4971379;28;20123;-73
2022/09/13 03:02:30;;;;;;;4.88;3.40;;;;;;;18.69;76.38;99805.16;4976540;28;20038;-74
2022/09/13 03:04:57;;;;;;;7.22;3.22;;;;;;;18.69;76.35;99812.63;4987660;28;20022;-74
2022/09/13 03:07:23;;;;;;;7.00;3.65;;;;;;;18.73;76.59;99805.28;4986511;28;20459;-74
2022/09/13 03:09:53;;;;;;;7.70;3.70;;;;;;;18.79;77.32;99815.00;4960032;28;20090;-75
2022/09/13 03:12:46;;;;;;;5.85;4.20;;;;;;;18.83;76.97;99810.41;4981900;28;20090;-75
2022/09/13 03:15:29;;;;;;;8.70;4.88;;;;;;;18.96;76.58;99814.09;4981846;28;20068;-75
2022/09/13 03:18:16;;;;;;;11.52;4.28;;;;;;;18.96;76.65;99814.91;4989830;28;20105;-74
2022/09/13 03:21:07;;;;;;;6.28;3.65;;;;;;;19.04;77.16;99820.72;4974685;28;20030;-75
2022/09/13 03:23:54;;;;;;;6.20;4.55;;;;;;;19.08;76.78;99813.34;4979580;28;20090;-74
2022/09/13 03:26:46;;;;;;;7.05;3.95;;;;;;;19.09;76.83;99817.75;4972636;28;20051;-74
2022/09/13 03:29:20;;;;;;;6.50;5.00;;;;;;;19.01;77.34;99822.19;4980182;28;20102;-74
2022/09/13 03:32:08;;;;;;;7.43;4.95;;;;;;;18.96;77.84;99819.66;4965644;28;20027;-75
2022/09/13 03:34:51;;;;;;;8.25;5.20;;;;;;;18.99;77.46;99825.31;4975401;28;20062;-75
2022/09/13 03:37:31;;;;;;;5.70;4.17;;;;;;;19.07;77.52;99828.34;4972864;28;20020;-75
2022/09/13 03:40:05;;;;;;;8.98;6.00;;;;;;;19.08;77.44;99816.13;4980769;28;20370;-74
2022/09/13 03:43:00;;;;;;;12.27;6.22;;;;;;;19.07;77.69;99822.81;4969852;28;20031;-74
2022/09/13 03:45:30;;;;;;;10.80;6.30;;;;;;;19.04;77.95;99827.09;4964017;28;20421;-74
2022/09/13 03:47:56;;;;;;;9.20;6.57;;;;;;;18.98;78.47;99823.72;4971639;28;20428;-75
2022/09/13 03:50:24;;;;;;;10.65;6.95;;;;;;;18.98;78.18;99829.25;4945990;28;20114;-74
2022/09/13 03:52:57;;;;;;;10.35;6.53;;;;;;;18.98;78.69;99823.72;4977534;28;20462;-74
2022/09/13 03:55:24;;;;;;;12.07;7.10;;;;;;;19.04;77.90;99829.03;4979449;28;20030;-74
2022/09/13 03:57:49;;;;;;;9.48;7.15;;;;;;;19.06;77.89;99824.78;4992426;28;20401;-74
2022/09/13 04:00:17;;;;;;;12.45;7.78;;;;;;;19.03;78.14;99831.00;4972231;28;20038;-74
2022/09/13 04:02:42;;;;;;;12.57;7.95;;;;;;;19.01;78.29;99823.03;4979664;28;20458;-75
2022/09/13 04:05:08;;;;;;;10.95;7.78;;;;;;;18.94;78.73;99816.38;4985339;28;20042;-74
2022/09/13 04:07:33;;;;;;;10.88;7.28;;;;;;;18.90;78.54;99821.81;4972768;28;20070;-76
2022/09/13 04:09:59;;;;;;;10.70;7.60;;;;;;;18.86;78.51;99829.16;4976709;28;20023;-75
2022/09/13 04:12:25;;;;;;;11.10;7.25;;;;;;;18.88;78.32;99835.19;4960479;28;20038;-75
2022/09/13 04:14:51;;;;;;;11.02;7.80;;;;;;;18.89;78.75;99830.44;4974059;28;20121;-74
2022/09/13 04:17:17;;;;;;;10.93;7.47;;;;;;;18.83;78.49;99835.34;4971412;28;20985;-73
2022/09/13 04:19:45;;;;;;;12.02;7.25;;;;;;;18.87;78.20;99830.78;4974340;28;20035;-77
2022/09/13 04:22:11;;;;;;;9.80;6.68;;;;;;;18.82;78.49;99834.53;4980849;28;20033;-75
2022/09/13 04:24:38;;;;;;;12.63;7.15;;;;;;;18.83;78.70;99836.16;4960036;28;20107;-76
2022/09/13 04:27:04;;;;;;;9.88;6.88;;;;;;;18.82;78.42;99829.00;4962837;28;20054;-74
2022/09/13 04:29:30;;;;;;;7.43;5.85;;;;;;;18.77;78.21;99840.25;4963394;28;20027;-73
2022/09/13 04:31:56;;;;;;;7.70;5.60;;;;;;;18.76;77.89;99843.38;4974792;28;20081;-74
2022/09/13 04:34:22;;;;;;;8.93;6.32;;;;;;;18.66;78.00;99845.38;5017046;28;20037;-74
2022/09/13 04:36:49;;;;;;;8.50;5.75;;;;;;;18.60;77.63;99840.38;4993481;28;20042;-72
2022/09/13 04:39:14;;;;;;;5.05;4.40;;;;;;;18.59;77.94;99847.88;5007085;28;20072;-75
2022/09/13 04:41:43;;;;;;;7.88;4.70;;;;;;;18.56;77.41;99831.09;4996169;28;20030;-74
2022/09/13 04:44:09;;;;;;;4.30;3.70;;;;;;;18.52;77.46;99828.19;4997231;28;20030;-75
2022/09/13 04:46:34;;;;;;;6.05;3.50;;;;;;;18.51;77.84;99834.88;5015034;28;20022;-74
2022/09/13 04:49:00;;;;;;;3.97;2.88;;;;;;;18.49;77.49;99834.41;5010554;28;20598;-75
2022/09/13 04:51:25;;;;;;;3.45;2.70;;;;;;;18.47;77.34;99839.44;5016252;28;20030;-75
2022/09/13 04:53:55;;;;;;;3.83;2.55;;;;;;;18.42;76.97;99834.91;5016563;28;20471;-75
2022/09/13 04:56:23;;;;;;;2.90;2.40;;;;;;;18.42;76.78;99845.19;5010971;28;20054;-76
2022/09/13 04:58:55;;;;;;;3.35;2.40;;;;;;;18.31;76.82;99834.50;4989883;28;20048;-74
2022/09/13 05:01:22;;;;;;;3.05;1.60;;;;;;;18.25;76.51;99844.13;4997065;28;20045;-75
2022/09/13 05:03:50;;;;;;;2.45;1.77;;;;;;;18.21;76.79;99840.41;5012732;28;20112;-75
2022/09/13 05:06:19;;;;;;;1.30;1.20;;;;;;;18.18;76.24;99848.53;5016062;28;20030;-75
2022/09/13 05:08:55;;;;;;;1.45;0.93;;;;;;;18.07;75.70;99845.34;5002385;28;20034;-74
2022/09/13 05:11:26;;;;;;;1.88;0.98;;;;;;;17.99;74.98;99843.41;5012733;28;20030;-76
2022/09/13 05:13:54;;;;;;;0.65;0.57;;;;;;;17.98;74.87;99837.06;5001999;28;20026;-74
2022/09/13 05:16:24;;;;;;;0.85;0.50;;;;;;;18.01;73.73;99835.59;5001956;28;20041;-75
2022/09/13 05:18:50;;;;;;;0.88;0.50;;;;;;;18.04;72.84;99829.41;5011083;28;20530;-73
2022/09/13 05:21:17;;;;;;;2.63;0.65;;;;;;;18.01;71.29;99830.06;5019385;28;20694;-74
2022/09/13 05:23:43;;;;;;;0.30;0.28;;;;;;;17.91;69.94;99837.56;4997135;28;20026;-74
2022/09/13 05:26:09;;;;;;;1.10;0.40;;;;;;;17.76;68.96;99843.59;4998786;28;20032;-74
2022/09/13 05:28:35;;;;;;;1.10;0.43;;;;;;;17.67;68.99;99837.25;5007606;28;20048;-76
2022/09/13 05:31:06;;;;;;;1.63;0.68;;;;;;;17.55;68.02;99841.53;4989920;28;20058;-74
2022/09/13 05:33:34;;;;;;;0.57;0.43;;;;;;;17.45;69.01;99831.59;5002899;28;20052;-76
2022/09/13 05:36:00;;;;;;;1.48;0.40;;;;;;;17.44;68.45;99834.69;4997467;28;20472;-74
2022/09/13 05:38:26;;;;;;;1.50;0.60;;;;;;;17.43;68.51;99833.06;4986121;28;20030;-74
2022/09/13 05:40:56;;;;;;;1.35;0.50;;;;;;;17.45;68.80;99847.38;4982631;28;20129;-75
2022/09/13 05:43:23;;;;;;;1.23;0.50;;;;;;;17.47;67.80;99838.78;5017340;28;20369;-75
2022/09/13 05:45:48;;;;;;;1.48;0.30;;;;;;;17.44;67.85;99840.22;5002349;28;20044;-73
2022/09/13 05:48:13;;;;;;;1.95;0.60;;;;;;;17.38;68.06;99842.34;4983730;28;20034;-76
2022/09/13 05:50:39;;;;;;;3.72;0.60;;;;;;;17.26;68.32;99839.44;4998594;28;20041;-76
2022/09/13 05:53:05;;;;;;;1.45;0.60;;;;;;;17.20;68.55;99844.31;5017121;28;20037;-75
2022/09/13 05:55:31;;;;;;;0.77;0.50;;;;;;;17.18;68.36;99846.56;4999184;28;20026;-75
2022/09/13 05:57:57;;;;;;;1.27;0.50;;;;;;;17.14;67.73;99842.81;4994690;28;20030;-75
2022/09/13 06:00:23;;;;;;;3.60;0.60;;;;;;;17.08;68.60;99850.47;5011735;28;20084;-75
2022/09/13 06:02:48;;;;;;;4.25;0.65;;;;;;;16.95;68.04;99834.03;5010706;28;20345;-75
2022/09/13 06:05:13;;;;;;;0.47;0.40;;;;;;;16.90;68.30;99846.88;4990163;28;20021;-76
2022/09/13 06:07:42;;;;;;;0.93;0.63;;;;;;;16.89;68.00;99845.25;5000226;28;20439;-76
2022/09/13 06:10:09;;;;;;;0.98;0.40;;;;;;;16.85;68.29;99852.53;4985532;28;20041;-74
2022/09/13 06:12:37;;;;;;;1.25;0.60;;;;;;;16.78;68.54;99846.66;5003914;28;20026;-76
2022/09/13 06:15:03;;;;;;;3.05;0.70;;;;;;;16.77;68.03;99847.78;5015553;28;20032;-74
2022/09/13 06:17:29;;;;;;;1.52;0.80;;;;;;;16.78;68.58;99846.66;4984259;28;20061;-74
2022/09/13 06:19:55;;;;;;;2.53;0.73;;;;;;;16.85;68.48;99852.53;4997285;28;20041;-74
2022/09/13 06:22:21;;;;;;;4.18;0.82;;;;;;;16.83;68.63;99838.22;4997115;28;20034;-73
2022/09/13 06:24:47;;;;;;;5.57;1.17;;;;;;;16.88;68.42;99840.88;5005598;28;20037;-74
2022/09/13 06:27:12;;;;;;;5.00;1.25;;;;;;;16.96;68.63;99842.00;5012213;28;20428;-73
2022/09/13 06:29:37;;;;;;;2.33;0.70;;;;;;;17.02;68.33;99834.38;4996937;28;20476;-75
2022/09/13 06:32:03;;;;;;;2.20;0.70;;;;;;;17.02;67.89;99828.84;4985799;28;20100;-75
2022/09/13 06:34:29;;;;;;;2.85;0.95;;;;;;;17.06;68.04;99827.88;4973405;28;20038;-74
2022/09/13 06:36:54;;;;;;;1.95;0.80;;;;;;;17.10;68.27;99837.13;4975958;28;20030;-74
2022/09/13 06:39:20;;;;;;;2.90;0.80;;;;;;;17.13;67.53;99841.22;4962674;28;20164;-75
2022/09/13 06:41:45;;;;;;;4.03;0.63;;;;;;;17.15;67.94;99844.44;4993512;28;20030;-73
2022/09/13 06:44:11;;;;;;;0.95;0.38;;;;;;;17.15;67.91;99849.97;4991830;28;20448;-72
2022/09/13 06:46:37;;;;;;;1.70;0.57;;;;;;;17.14;67.59;99842.81;5013922;28;20037;-73
2022/09/13 06:49:05;;;;;;;3.05;0.70;;;;;;;17.16;67.36;99839.75;4976915;28;20051;-75
2022/09/13 06:51:31;;;;;;;1.65;0.70;;;;;;;17.13;67.20;99832.94;5010363;28;20113;-75
2022/09/13 06:54:01;;;;;;;1.83;0.77;;;;;;;17.01;67.35;99821.69;4996138;28;20030;-80
2022/09/13 06:56:29;;;;;;;1.13;0.80;;;;;;;16.95;67.86;99825.75;5005408;28;20058;-79
2022/09/13 06:58:57;;;;;;;1.60;0.95;;;;;;;16.90;67.94;99827.53;5020601;28;20033;-74
2022/09/13 07:01:24;;;;;;;2.30;0.73;;;;;;;16.85;67.86;99824.06;5020058;28;20030;-77
2022/09/13 07:04:06;;;;;;;1.95;0.55;;;;;;;16.82;68.18;99817.28;5015968;28;20052;-79
2022/09/13 07:06:43;;;;;;;4.25;0.93;;;;;;;16.81;68.49;99821.16;4994979;28;20559;-78
2022/09/13 07:09:16;;;;;;;2.97;0.57;;;;;;;16.87;67.89;99822.66;5014158;28;20049;-73
2022/09/13 07:11:43;;;;;;;3.28;0.98;;;;;;;16.88;68.40;99818.78;5003170;28;20125;-76
2022/09/13 07:14:13;;;;;;;1.15;0.60;;;;;;;16.95;68.33;99814.72;4970553;28;20064;-76
2022/09/13 07:16:39;;;;;;;2.20;0.80;;;;;;;16.98;68.17;99811.28;5014206;28;20028;-77
2022/09/13 07:19:07;;;;;;;2.08;0.85;;;;;;;17.01;68.19;99813.41;5001585;28;20093;-76
2022/09/13 07:21:34;;;;;;;4.22;0.70;;;;;;;17.12;68.49;99822.19;5010909;28;20081;-76
2022/09/13 07:24:00;;;;;;;7.07;1.40;;;;;;;17.11;68.30;99807.56;5018928;28;20480;-77
2022/09/13 07:26:26;;;;;;;3.53;1.10;;;;;;;17.12;67.75;99805.63;5001543;28;20042;-77
2022/09/13 07:28:55;;;;;;;2.92;1.02;;;;;;;17.12;68.39;99806.44;5019202;28;20049;-77
2022/09/13 07:31:29;;;;;;;4.95;0.85;;;;;;;17.13;67.73;99808.06;5017693;28;20026;-77
2022/09/13 07:34:00;;;;;;;4.35;1.15;;;;;;;17.17;68.16;99813.75;5016717;28;20097;-75
2022/09/13 07:36:27;;;;;;;2.55;1.02;;;;;;;17.17;68.55;99809.03;4988330;28;20116;-77
2022/09/13 07:38:53;;;;;;;2.13;1.30;;;;;;;17.24;68.00;99814.06;5009588;28;20052;-77
2022/09/13 07:41:20;;;;;;;7.38;1.75;;;;;;;17.26;68.24;99811.81;4992368;28;20380;-77
2022/09/13 07:43:46;;;;;;;9.40;2.10;;;;;;;17.25;67.74;99810.16;5017529;28;20026;-76
2022/09/13 07:46:14;;;;;;;3.70;1.40;;;;;;;17.22;68.14;99806.09;4980454;28;20114;-75
2022/09/13 07:48:42;;;;;;;4.97;1.45;;;;;;;17.22;68.33;99814.38;4983793;28;20038;-77
2022/09/13 07:51:10;;;;;;;5.47;1.73;;;;;;;17.25;68.52;99810.97;4996462;28;20446;-80
2022/09/13 07:53:37;;;;;;;3.72;1.73;;;;;;;17.28;68.42;99807.56;4999514;28;20118;-78
2022/09/13 07:56:05;;;;;;;6.32;1.80;;;;;;;17.31;68.92;99805.28;4996819;28;20030;-78
2022/09/13 07:58:32;;;;;;;5.80;1.75;;;;;;;17.29;68.55;99802.84;5016521;28;20474;-78
2022/09/13 08:01:03;;;;;;;4.45;1.25;;;;;;;17.29;68.78;99808.38;5000887;28;20041;-77
2022/09/13 08:03:29;;;;;;;4.50;1.40;;;;;;;17.35;68.62;99814.56;5012171;28;20425;-77
2022/09/13 08:05:54;;;;;;;2.83;1.20;;;;;;;17.30;69.31;99812.75;4993731;28;20037;-77
2022/09/13 08:08:20;;;;;;;3.58;1.60;;;;;;;17.35;69.43;99809.84;5004815;28;20034;-76
2022/09/13 08:10:45;;;;;;;2.90;1.35;;;;;;;17.42;69.25;99818.44;4970424;28;20046;-77
2022/09/13 08:13:11;;;;;;;3.05;1.45;;;;;;;17.46;69.24;99818.59;5000616;28;20664;-78
2022/09/13 08:15:36;;;;;;;2.58;1.35;;;;;;;17.49;69.10;99819.91;5001606;28;20025;-77
2022/09/13 08:18:04;;;;;;;3.97;1.75;;;;;;;17.52;69.14;99820.06;5014672;28;20014;-77
2022/09/13 08:20:29;;;;;;;7.38;1.80;;;;;;;17.50;69.81;99814.03;4998112;28;20037;-77
2022/09/13 08:22:55;;;;;;;3.05;1.58;;;;;;;17.45;70.51;99814.22;5001897;28;20098;-77
2022/09/13 08:25:20;;;;;;;4.20;1.92;;;;;;;17.37;70.99;99812.28;4995972;28;20121;-78
2022/09/13 08:27:45;;;;;;;6.13;1.60;;;;;;;17.32;71.14;99817.94;5017200;28;20026;-78
2022/09/13 08:30:11;;;;;;;4.22;1.77;;;;;;;17.33;71.34;99816.81;5001870;28;20026;-76
2022/09/13 08:32:37;;;;;;;6.35;1.48;;;;;;;17.32;71.28;99820.72;5015714;28;20058;-78
2022/09/13 08:35:02;;;;;;;7.28;1.58;;;;;;;17.31;71.92;99819.09;5002027;28;20038;-76
2022/09/13 08:37:28;;;;;;;3.60;1.90;;;;;;;17.35;71.54;99820.88;4967357;28;20033;-76
2022/09/13 08:39:53;;;;;;;3.33;1.42;;;;;;;17.48;71.22;99824.63;4983313;28;20110;-78
2022/09/13 08:42:48;;;;;;;4.40;1.50;;;;;;;17.59;71.89;99831.41;4980364;28;20026;-76
2022/09/13 08:45:14;;;;;;;1.10;0.93;;;;;;;17.74;71.49;99835.63;4991877;28;20072;-78
2022/09/13 08:47:51;;;;;;;3.53;1.30;;;;;;;17.96;70.56;99851.22;4985005;28;20029;-77
2022/09/13 08:50:27;;;;;;;7.10;1.42;;;;;;;18.03;70.52;99849.91;5007026;28;20026;-78
2022/09/13 08:53:11;;;;;;;4.15;1.50;;;;;;;18.12;70.21;99858.97;5021057;28;20025;-77
2022/09/13 08:55:50;;;;;;;4.17;1.20;;;;;;;18.20;70.25;99860.09;5006993;28;20053;-76
2022/09/13 08:58:27;;;;;;;4.30;1.40;;;;;;;18.31;70.42;99866.88;4995179;28;20014;-77
2022/09/13 09:01:02;;;;;;;3.10;1.35;;;;;;;18.47;69.87;99872.66;5027221;28;20026;-77
2022/09/13 09:03:42;;;;;;;2.75;1.40;;;;;;;18.60;69.42;99865.28;5022427;28;20029;-77
2022/09/13 09:06:16;;;;;;;3.63;1.73;;;;;;;18.70;69.37;99861.34;5024624;28;20026;-76
2022/09/13 09:08:45;;;;;;;6.35;1.67;;;;;;;18.82;69.17;99864.19;5014245;28;20038;-77
2022/09/13 09:11:48;;;;;;;7.15;2.55;;;;;;;18.98;68.82;99873.56;5012225;28;20054;-76
2022/09/13 09:14:37;;;;;;;5.05;1.90;;;;;;;19.14;67.95;99859.09;5001297;28;20435;-77
2022/09/13 09:17:17;;;;;;;2.75;1.65;;;;;;;19.24;67.83;99864.25;5019192;28;20041;-77
2022/09/13 09:19:47;;;;;;;5.07;1.92;;;;;;;19.24;67.51;99858.69;5023149;28;20018;-77
2022/09/13 09:22:18;;;;;;;5.05;2.17;;;;;;;19.27;67.61;99860.00;4999693;28;20081;-77
2022/09/13 09:24:48;;;;;;;4.70;1.80;;;;;;;19.25;67.78;99860.34;5016678;28;20025;-78
2022/09/13 09:27:17;;;;;;;7.10;2.10;;;;;;;19.25;67.86;99860.34;5016253;28;20446;-77
2022/09/13 09:29:45;;;;;;;3.88;2.15;;;;;;;19.32;67.50;99857.84;5012755;28;20045;-78
2022/09/13 09:32:38;;;;;;;5.35;1.95;;;;;;;19.49;67.29;99865.19;5000591;28;20061;-77
2022/09/13 09:35:22;;;;;;;3.30;1.83;;;;;;;19.66;66.52;99860.63;5019062;28;20088;-77
2022/09/13 09:38:52;;;;;;;5.13;2.05;;;;;;;20.04;65.62;99856.84;5016932;28;20037;-77
2022/09/13 09:41:34;;;;;;;3.40;1.73;;;;;;;20.41;65.13;99851.31;4926923;29;20038;-76
2022/09/13 09:44:19;;;;;;;5.10;2.10;;;;;;;20.74;63.77;99865.13;5010962;28;20034;-77
2022/09/13 09:47:04;;;;;;;10.60;2.08;;;;;;;20.98;63.19;99857.91;4990241;28;20461;-77
2022/09/13 09:52:38;;;;;;;;;;;;;;;21.39;61.88;99864.31;5022109;28;20168;-77
2022/09/13 09:55:32;;;;;;;6.22;1.80;;;;;;;21.66;61.70;99873.03;5005151;28;19925;-78
2022/09/13 09:58:07;;;;;;;5.10;1.98;;;;;;;21.75;61.30;99876.47;5006216;28;20034;-80
2022/09/13 10:00:35;;;;;;;6.63;2.10;;;;;;;21.78;60.55;99878.53;5028214;28;20018;-78
2022/09/13 10:03:07;;;;;;;4.22;2.20;;;;;;;21.67;60.95;99879.41;5019282;28;20026;-77
2022/09/13 10:05:34;;;;;;;2.90;2.05;;;;;;;21.58;61.58;99871.19;5021806;28;20026;-78
2022/09/13 10:08:06;;;;;;;4.30;2.28;;;;;;;21.45;61.68;99885.13;5003995;28;20409;-77
2022/09/13 10:10:50;;;;;;;5.85;2.45;;;;;;;21.23;62.30;99877.31;5022943;28;20021;-77
2022/09/13 10:13:20;;;;;;;5.00;2.08;;;;;;;21.13;62.51;99877.81;5004830;28;20025;-77
2022/09/13 10:15:53;;;;;;;8.43;2.50;;;;;;;21.08;62.92;99882.47;5003834;28;20032;-76
2022/09/13 10:18:20;;;;;;;4.43;2.28;;;;;;;21.04;63.19;99889.06;5021448;28;20088;-78
2022/09/13 10:21:30;;;;;;;6.93;2.70;;;;;;;20.91;63.38;99888.28;5018504;28;20428;-77
2022/09/13 10:24:15;;;;;;;7.95;2.63;;;;;;;20.67;64.03;99884.34;4980785;28;20042;-73
2022/09/13 10:26:41;;;;;;;3.83;2.22;;;;;;;20.53;64.07;99875.50;5019360;28;20120;-75
2022/09/13 10:29:15;;;;;;;3.97;1.90;;;;;;;20.48;64.54;99876.56;5008649;28;20032;-75
2022/09/13 10:31:44;;;;;;;5.13;2.33;;;;;;;20.51;64.63;99880.59;5013659;28;20026;-76
2022/09/13 10:34:36;;;;;;;6.65;2.08;;;;;;;20.61;64.92;99882.91;5002754;28;20034;-75
2022/09/13 10:37:04;;;;;;;9.63;2.38;;;;;;;20.65;64.35;99883.84;5011066;28;20045;-76
2022/09/13 10:39:34;;;;;;;2.70;1.80;;;;;;;20.74;64.11;99881.78;5016178;28;20018;-75
2022/09/13 10:42:05;;;;;;;4.45;1.80;;;;;;;20.82;63.89;99879.25;5016289;28;20025;-75
2022/09/13 10:44:42;;;;;;;4.07;1.98;;;;;;;20.96;63.78;99879.69;5002925;28;20526;-75
2022/09/13 10:47:34;;;;;;;5.07;2.05;;;;;;;21.09;63.69;99878.50;5003067;28;20030;-76
2022/09/13 10:50:21;;;;;;;3.08;1.52;;;;;;;21.33;63.21;99885.16;4983390;28;20048;-76
2022/09/13 10:52:52;;;;;;;2.05;1.33;;;;;;;21.53;62.86;99897.31;5002699;28;20057;-75
2022/09/13 10:55:17;;;;;;;1.60;1.23;;;;;;;21.61;62.18;99889.97;5017270;28;20022;-76
2022/09/13 10:57:44;;;;;;;5.13;1.75;;;;;;;21.74;62.22;99891.56;5000539;28;20038;-75
2022/09/13 11:00:29;;;;;;;1.92;1.10;;;;;;;21.82;61.92;99887.00;5018282;28;20468;-78
2022/09/13 11:03:32;;;;;;;2.60;1.55;;;;;;;22.08;61.00;99894.06;4999625;28;20532;-77
2022/09/13 11:06:23;;;;;;;2.38;1.80;;;;;;;22.23;60.76;99889.66;5023941;28;20121;-77
2022/09/13 11:09:03;;;;;;;5.05;1.67;;;;;;;22.13;59.92;99885.44;5021102;28;20026;-76
2022/09/13 11:12:05;;;;;;;2.50;1.63;;;;;;;21.94;61.02;99891.69;5019578;28;20028;-76
2022/09/13 11:14:52;;;;;;;5.05;1.73;;;;;;;21.85;60.68;99897.41;4980183;28;20436;-78
2022/09/13 11:17:48;;;;;;;2.60;1.40;;;;;;;21.79;60.70;99898.84;5019331;28;20022;-78
2022/09/13 11:20:33;;;;;;;2.03;1.40;;;;;;;21.89;61.22;99908.63;4987026;28;20062;-78
2022/09/13 11:23:17;;;;;;;2.53;1.48;;;;;;;21.86;60.81;99910.16;5002027;28;20032;-76
2022/09/13 11:26:01;;;;;;;3.85;1.23;;;;;;;21.72;60.71;99913.34;5016027;28;20033;-77
2022/09/13 11:29:03;;;;;;;1.67;1.02;;;;;;;21.60;61.12;99902.28;5002313;28;20034;-76
2022/09/13 11:31:31;;;;;;;4.18;1.08;;;;;;;21.46;61.19;99902.63;5001434;28;20040;-77
2022/09/13 11:34:15;;;;;;;3.88;1.33;;;;;;;21.38;60.52;99906.38;5017150;28;20045;-76
2022/09/13 11:37:05;;;;;;;3.15;1.23;;;;;;;21.24;60.87;99892.84;4993722;28;20022;-73
2022/09/13 11:39:47;;;;;;;1.42;0.90;;;;;;;21.04;61.46;99892.66;5015441;28;20432;-72
2022/09/13 11:42:40;;;;;;;1.45;1.05;;;;;;;21.00;62.01;99900.06;4995749;28;20691;-72
2022/09/13 11:45:08;;;;;;;1.35;0.90;;;;;;;20.93;61.58;99902.63;5020401;28;20021;-72
2022/09/13 11:47:47;;;;;;;2.65;1.00;;;;;;;20.83;61.31;99894.75;4995161;28;20045;-73
2022/09/13 11:50:24;;;;;;;1.13;0.82;;;;;;;20.77;61.74;99893.38;5012794;28;20026;-73
2022/09/13 11:53:03;;;;;;;2.78;1.20;;;;;;;20.81;61.83;99892.34;4994185;28;20022;-72
2022/09/13 11:55:48;;;;;;;4.15;1.55;;;;;;;20.89;62.09;99890.59;4995685;28;20369;-73
2022/09/13 11:58:30;;;;;;;2.70;1.25;;;;;;;20.95;61.59;99889.19;5010047;28;20036;-72
2022/09/13 12:01:10;;;;;;;5.00;1.75;;;;;;;21.01;61.22;99892.53;5014840;28;20029;-74
2022/09/13 12:03:44;;;;;;;3.75;1.90;;;;;;;20.92;61.19;99901.00;5014392;28;20045;-75
2022/09/13 12:06:18;;;;;;;6.95;1.88;;;;;;;20.95;61.54;99883.63;5012815;28;20022;-73